Kezdőlap
METAR-TAF:

METAR-TAF

Repülőterek :

Evelyn Sharp Field

Ord, Nebraska, Amerikai Egyesült Államok

földrajzi szélesség: 41-37-27N, földrajzi hosszúság: 098-57-09W, magasság: 631 m

Jelenlegi meteorológiai megfigyelések

A jelentés 56 perccel ezelõtt készült, 03:53 UTC
Szélcsend
Hőmérséklet 21°C
Páratartalom 83%
Légköri nyomás 1008 hPa
Látótávolság: 16.1 km
Derült ég

METAR: KODX 130353Z AUTO 00000KT 10SM CLR 21/18 A2978 RMK AO2 SLP070 T02110183

Idő: 23:49 (04:49 UTC)


TAF: hiányzik

Meteorológiai megfigyelések és előrejelzések több, mint 4000 repülőtéren (METAR és TAF jelentéseket).

A térképen piros és sárga pontok jelzik az elérhető meteorológiai állomásokat.

Mozgassa az egeret a pont fölött, hogy megjelenjen az állomás neve.

Azután kattintson az időjárási megfigyelések és előrejelzések megtekintéséhez.

A térkép megváltoztatása: kattintson a fekete keresztel jelölt zöld gombra ráközelítéshez, a vonallal jelölt zöld gombra távolításhoz, vagy a zöld nyilakra a szomszédos térképek eléréséhez.


METAR-TAF: